Terminal Aerodrome Forecast
Issued by NWS

Home | Current Version | Previous Version | Text Only | Print | Product List | Glossary On
Versions: 1 2 3 4 5 6 7 8 9 10 11 12 13 14 15 16 17 18 19 20 21 22 23 24
000
FTUS43 KGRB 201128
TAFRHI
TAF
KRHI 201128Z 2012/2112 23004KT 5SM BR BKN150
      TEMPO 2012/2013 2SM BR
     FM201400 21007KT P6SM SCT080 SCT200
     FM201800 21011G15KT P6SM SCT070 SCT200
     FM202000 23007KT P6SM VCTS BKN100CB
     FM210400 VRB03KT P6SM BKN070
     FM210600 26003KT 1 1/2SM BR SCT003
     FM210900 00000KT 1/2SM FG OVC002=

USA.gov is the U.S. government's official web portal to all federal, state and local government web resources and services.